Time;durP1;ratioP1;P1;durP2;ratioP2;P2;SDS_P1;SDS_P2;PMS_P1;PMS_P2;Temp;Humidity;BMP_temperature;BMP_pressure;BME280_temperature;BME280_humidity;BME280_pressure;Samples;Min_cycle;Max_cycle;Signal;HPM_P1;HPM_P2
2022/09/09 00:02:28;;;;;;;1.98;1.13;;;21.70;81.70;;;;;;5071750;28;20040;-79
2022/09/09 00:05:22;;;;;;;1.40;0.98;;;21.70;81.70;;;;;;5068117;28;20036;-77
2022/09/09 00:07:51;;;;;;;1.70;1.20;;;21.70;81.80;;;;;;5071260;28;20045;-78
2022/09/09 00:10:36;;;;;;;1.90;1.10;;;21.60;81.90;;;;;;5079498;28;20020;-79
2022/09/09 00:13:15;;;;;;;1.70;1.10;;;21.60;81.90;;;;;;5069512;28;20017;-80
2022/09/09 00:15:45;;;;;;;1.45;1.08;;;21.60;81.90;;;;;;5061389;28;20074;-79
2022/09/09 00:18:33;;;;;;;1.25;1.00;;;21.60;81.90;;;;;;5069274;28;20028;-79
2022/09/09 00:21:17;;;;;;;1.95;1.10;;;21.60;82.00;;;;;;5080421;28;20059;-79
2022/09/09 00:23:53;;;;;;;1.38;1.00;;;21.60;82.00;;;;;;5088636;28;20031;-78
2022/09/09 00:26:30;;;;;;;1.73;1.00;;;21.60;82.00;;;;;;5074784;28;20039;-78
2022/09/09 00:29:29;;;;;;;1.30;0.95;;;21.60;82.00;;;;;;5072537;28;20639;-77
2022/09/09 00:32:08;;;;;;;1.90;1.00;;;21.60;82.00;;;;;;5066387;28;20584;-77
2022/09/09 00:34:36;;;;;;;2.30;1.00;;;21.60;81.80;;;;;;5067974;28;20035;-79
2022/09/09 00:37:02;;;;;;;1.50;1.00;;;21.60;81.70;;;;;;5068435;28;20523;-78
2022/09/09 00:39:37;;;;;;;3.15;1.00;;;21.60;81.60;;;;;;5068349;28;20082;-78
2022/09/09 00:42:17;;;;;;;1.60;1.00;;;21.70;81.70;;;;;;5067915;28;20128;-78
2022/09/09 00:45:18;;;;;;;2.17;1.00;;;21.60;81.70;;;;;;5067955;28;20093;-79
2022/09/09 00:47:45;;;;;;;1.73;1.00;;;21.60;81.70;;;;;;5047473;28;20436;-80
2022/09/09 00:50:55;;;;;;;1.50;1.10;;;21.60;81.80;;;;;;5072176;28;20426;-78
2022/09/09 00:53:51;;;;;;;3.20;0.95;;;21.60;81.80;;;;;;5054975;28;20036;-78
2022/09/09 00:56:23;;;;;;;1.40;0.95;;;21.60;81.90;;;;;;5057615;28;20039;-78
2022/09/09 00:59:03;;;;;;;2.42;1.10;;;21.50;81.80;;;;;;5080584;28;20028;-77
2022/09/09 01:01:29;;;;;;;1.30;0.88;;;21.60;82.00;;;;;;5075430;28;20020;-78
2022/09/09 01:03:59;;;;;;;1.33;0.90;;;21.50;82.50;;;;;;5082935;28;20054;-78
2022/09/09 01:06:33;;;;;;;0.88;0.88;;;21.60;82.00;;;;;;5071354;28;20040;-78
2022/09/09 01:09:08;;;;;;;2.35;0.80;;;21.60;82.00;;;;;;5078726;28;20107;-80
2022/09/09 01:11:49;;;;;;;1.75;1.00;;;21.50;82.00;;;;;;5069485;28;20025;-79
2022/09/09 01:14:36;;;;;;;1.00;0.70;;;21.60;82.10;;;;;;5081263;28;20028;-81
2022/09/09 01:17:18;;;;;;;1.02;0.90;;;21.50;82.00;;;;;;5072852;28;20051;-79
2022/09/09 01:19:43;;;;;;;1.35;0.90;;;21.60;81.90;;;;;;5075722;28;20033;-79
2022/09/09 01:22:40;;;;;;;1.45;0.90;;;21.60;81.80;;;;;;5085735;28;20062;-79
2022/09/09 01:25:11;;;;;;;1.60;0.90;;;21.60;81.70;;;;;;5085545;28;20020;-78
2022/09/09 01:27:37;;;;;;;1.50;1.00;;;21.60;81.70;;;;;;5078188;28;20400;-78
2022/09/09 01:30:09;;;;;;;2.25;1.13;;;21.60;81.70;;;;;;5074558;28;20032;-78
2022/09/09 01:32:47;;;;;;;2.08;0.90;;;21.60;81.70;;;;;;5067960;28;20015;-79
2022/09/09 01:35:44;;;;;;;1.63;1.00;;;21.60;81.80;;;;;;5080902;28;20047;-78
2022/09/09 01:38:10;;;;;;;2.85;1.20;;;21.60;81.80;;;;;;5075030;28;20032;-78
2022/09/09 01:40:36;;;;;;;1.42;0.90;;;21.60;81.90;;;;;;5089499;28;20032;-79
2022/09/09 01:43:02;;;;;;;1.25;1.00;;;21.50;81.80;;;;;;5070416;28;20102;-77
2022/09/09 01:45:28;;;;;;;1.67;1.10;;;21.50;81.90;;;;;;5070289;28;20112;-79
2022/09/09 01:47:54;;;;;;;2.67;1.33;;;21.50;81.90;;;;;;5072200;28;20346;-78
2022/09/09 01:50:20;;;;;;;1.38;0.95;;;21.60;82.10;;;;;;5081694;28;20020;-78
2022/09/09 01:52:51;;;;;;;0.80;0.80;;;21.40;81.90;;;;;;5074664;28;20489;-78
2022/09/09 01:55:23;;;;;;;1.13;0.90;;;21.40;82.00;;;;;;5081149;28;20024;-78
2022/09/09 01:57:54;;;;;;;2.40;1.10;;;21.50;82.00;;;;;;5073774;28;20135;-79
2022/09/09 02:00:20;;;;;;;0.70;0.70;;;21.50;82.00;;;;;;5081454;28;20412;-78
2022/09/09 02:02:57;;;;;;;0.93;0.82;;;21.50;82.00;;;;;;5074417;28;20036;-78
2022/09/09 02:05:25;;;;;;;2.53;0.90;;;21.50;81.90;;;;;;5056691;28;20119;-77
2022/09/09 02:08:00;;;;;;;1.23;0.90;;;21.50;81.80;;;;;;5069102;28;20039;-78
2022/09/09 02:10:40;;;;;;;1.45;0.90;;;21.50;81.70;;;;;;5069873;28;20020;-78
2022/09/09 02:13:10;;;;;;;1.05;0.80;;;21.60;81.70;;;;;;5079391;28;20172;-78
2022/09/09 02:15:50;;;;;;;0.95;0.90;;;21.50;81.60;;;;;;5070492;28;20025;-78
2022/09/09 02:18:23;;;;;;;1.58;1.00;;;21.60;81.80;;;;;;5070161;28;20048;-78
2022/09/09 02:20:51;;;;;;;2.22;1.05;;;21.60;81.90;;;;;;5073686;28;20035;-78
2022/09/09 02:23:17;;;;;;;1.17;0.80;;;21.50;81.80;;;;;;5072453;28;20067;-78
2022/09/09 02:25:44;;;;;;;1.52;1.00;;;21.40;81.80;;;;;;5081705;28;20032;-79
2022/09/09 02:28:13;;;;;;;1.20;0.93;;;21.50;81.90;;;;;;5078779;28;20025;-78
2022/09/09 02:30:41;;;;;;;1.20;0.85;;;21.50;81.90;;;;;;5064704;28;20140;-77
2022/09/09 02:33:10;;;;;;;1.58;1.00;;;21.50;82.00;;;;;;5061699;28;20028;-75
2022/09/09 02:35:37;;;;;;;1.17;0.80;;;21.50;82.00;;;;;;5068096;28;20029;-77
2022/09/09 02:38:07;;;;;;;1.45;0.90;;;21.50;82.00;;;;;;5078154;28;20028;-78
2022/09/09 02:40:32;;;;;;;1.40;0.90;;;21.50;82.10;;;;;;5076679;28;20047;-78
2022/09/09 02:42:59;;;;;;;0.90;0.70;;;21.50;82.10;;;;;;5078403;28;20024;-78
2022/09/09 02:45:35;;;;;;;0.88;0.85;;;21.50;82.10;;;;;;5078931;28;20607;-78
2022/09/09 02:48:01;;;;;;;1.35;0.80;;;21.50;82.10;;;;;;5077623;28;20028;-78
2022/09/09 02:50:28;;;;;;;1.17;0.80;;;21.50;82.10;;;;;;5084719;28;20024;-78
2022/09/09 02:53:00;;;;;;;0.80;0.77;;;21.50;82.00;;;;;;5089217;28;20218;-78
2022/09/09 02:55:37;;;;;;;2.17;0.90;;;21.50;81.90;;;;;;5064173;28;20032;-79
2022/09/09 02:58:06;;;;;;;0.75;0.70;;;21.50;81.80;;;;;;5048416;28;20540;-78
2022/09/09 03:00:35;;;;;;;1.27;0.82;;;21.60;81.80;;;;;;5056701;28;20032;-79
2022/09/09 03:03:03;;;;;;;1.27;0.90;;;21.50;81.80;;;;;;5073960;28;20123;-79
2022/09/09 03:05:28;;;;;;;1.80;0.90;;;21.50;81.80;;;;;;5068975;28;20112;-78
2022/09/09 03:07:54;;;;;;;1.80;0.73;;;21.50;81.90;;;;;;5075138;28;20096;-79
2022/09/09 03:10:20;;;;;;;1.27;0.85;;;21.50;81.90;;;;;;5075365;28;20081;-77
2022/09/09 03:12:45;;;;;;;1.88;0.90;;;21.50;81.90;;;;;;5074898;28;20020;-78
2022/09/09 03:15:11;;;;;;;1.20;1.00;;;21.50;82.00;;;;;;5069521;28;20024;-79
2022/09/09 03:17:37;;;;;;;1.63;0.93;;;21.50;82.00;;;;;;5076458;28;20470;-78
2022/09/09 03:20:04;;;;;;;0.90;0.80;;;21.40;82.00;;;;;;5075154;28;20043;-78
2022/09/09 03:22:29;;;;;;;1.25;0.80;;;21.40;82.10;;;;;;5078105;28;20025;-78
2022/09/09 03:24:55;;;;;;;1.33;0.80;;;21.50;82.10;;;;;;5075830;28;20071;-78
2022/09/09 03:27:21;;;;;;;1.80;0.77;;;21.40;82.10;;;;;;5071491;28;20028;-78
2022/09/09 03:29:46;;;;;;;1.00;0.80;;;21.40;82.10;;;;;;5073299;28;20485;-80
2022/09/09 03:32:12;;;;;;;1.63;0.88;;;21.40;82.10;;;;;;5073776;28;20038;-80
2022/09/09 03:34:42;;;;;;;1.77;0.82;;;21.40;82.10;;;;;;5071457;28;20051;-79
2022/09/09 03:37:07;;;;;;;1.27;0.85;;;21.50;82.20;;;;;;5082495;28;20032;-78
2022/09/09 03:39:33;;;;;;;1.15;0.77;;;21.40;82.10;;;;;;5076645;28;20031;-79
2022/09/09 03:41:58;;;;;;;1.15;0.70;;;21.50;82.00;;;;;;5072591;28;20425;-79
2022/09/09 03:44:24;;;;;;;1.05;0.80;;;21.50;82.00;;;;;;5074976;28;20076;-79
2022/09/09 03:46:49;;;;;;;1.58;0.80;;;21.50;81.90;;;;;;5069463;28;20903;-78
2022/09/09 03:49:15;;;;;;;0.88;0.77;;;21.50;81.90;;;;;;5078300;28;20020;-78
2022/09/09 03:51:41;;;;;;;1.30;0.80;;;21.50;81.90;;;;;;5078955;28;20012;-78
2022/09/09 03:54:08;;;;;;;1.75;1.00;;;21.50;82.00;;;;;;5088163;28;20031;-79
2022/09/09 03:56:34;;;;;;;1.08;0.70;;;21.50;82.00;;;;;;5070400;28;20037;-77
2022/09/09 03:58:59;;;;;;;2.20;0.90;;;21.40;82.50;;;;;;5060415;28;20048;-78
2022/09/09 04:01:25;;;;;;;1.42;0.80;;;21.40;82.00;;;;;;5059701;28;20029;-80
2022/09/09 04:03:52;;;;;;;0.80;0.80;;;21.40;82.10;;;;;;5073602;28;20032;-78
2022/09/09 04:06:19;;;;;;;0.93;0.70;;;21.40;82.10;;;;;;5072048;28;20114;-78
2022/09/09 04:08:48;;;;;;;0.80;0.80;;;21.40;82.20;;;;;;5084224;28;20079;-79
2022/09/09 04:11:14;;;;;;;0.82;0.80;;;21.40;82.20;;;;;;5067254;28;20032;-78
2022/09/09 04:13:40;;;;;;;1.08;0.73;;;21.40;82.20;;;;;;5077515;28;20047;-78
2022/09/09 04:16:05;;;;;;;1.55;0.80;;;21.40;82.30;;;;;;5064859;28;20031;-77
2022/09/09 04:18:31;;;;;;;1.00;0.68;;;21.40;82.30;;;;;;5073395;28;20077;-79
2022/09/09 04:20:57;;;;;;;1.10;0.60;;;21.40;82.30;;;;;;5078437;28;20517;-78
2022/09/09 04:23:25;;;;;;;0.73;0.68;;;21.40;82.20;;;;;;5068102;28;20031;-79
2022/09/09 04:25:52;;;;;;;0.95;0.70;;;21.40;82.10;;;;;;5066214;28;20024;-77
2022/09/09 04:28:19;;;;;;;0.93;0.70;;;21.40;82.10;;;;;;5083171;28;20027;-78
2022/09/09 04:30:46;;;;;;;1.35;0.68;;;21.40;82.00;;;;;;5068030;28;20031;-78
2022/09/09 04:33:12;;;;;;;0.95;0.70;;;21.40;81.80;;;;;;5075620;28;20109;-80
2022/09/09 04:35:38;;;;;;;0.80;0.60;;;21.40;81.90;;;;;;5066650;28;20125;-77
2022/09/09 04:38:07;;;;;;;0.70;0.70;;;21.40;81.90;;;;;;5075376;28;20024;-77
2022/09/09 04:40:32;;;;;;;1.25;0.90;;;21.40;82.00;;;;;;5073610;28;20032;-77
2022/09/09 04:42:59;;;;;;;1.55;0.90;;;21.40;82.00;;;;;;5055147;28;20029;-77
2022/09/09 04:45:26;;;;;;;1.60;0.73;;;21.40;82.00;;;;;;5048235;28;20135;-78
2022/09/09 04:47:52;;;;;;;2.05;1.02;;;21.40;82.10;;;;;;5048201;28;20436;-79
2022/09/09 04:50:18;;;;;;;0.70;0.70;;;21.40;82.10;;;;;;5046761;28;20025;-80
2022/09/09 04:52:44;;;;;;;1.00;0.80;;;21.40;82.10;;;;;;5066661;28;20034;-79
2022/09/09 04:55:09;;;;;;;1.10;0.70;;;21.40;82.10;;;;;;5067144;28;20035;-78
2022/09/09 04:57:35;;;;;;;0.80;0.80;;;21.40;82.10;;;;;;5069253;28;20028;-80
2022/09/09 05:00:01;;;;;;;1.45;0.80;;;21.40;82.20;;;;;;5068976;28;20039;-80
2022/09/09 05:02:27;;;;;;;0.82;0.80;;;21.40;82.30;;;;;;5065297;28;20029;-79
2022/09/09 05:04:52;;;;;;;0.80;0.80;;;21.30;82.10;;;;;;5080569;28;20464;-80
2022/09/09 05:07:18;;;;;;;0.70;0.65;;;21.30;82.10;;;;;;5072364;28;20028;-77
2022/09/09 05:09:45;;;;;;;1.38;0.70;;;21.40;82.20;;;;;;5078019;28;20024;-80
2022/09/09 05:12:16;;;;;;;2.00;0.90;;;21.40;82.10;;;;;;5069195;28;20473;-82
2022/09/09 05:14:45;;;;;;;;;;;21.40;82.00;;;;;;5072685;28;20031;-82
2022/09/09 05:17:11;;;;;;;1.40;0.80;;;21.40;81.80;;;;;;5073232;23;19909;-84
2022/09/09 05:19:36;;;;;;;1.52;0.70;;;21.40;81.80;;;;;;5032433;28;20076;-82
2022/09/09 05:22:02;;;;;;;0.98;0.70;;;21.40;81.80;;;;;;5033905;28;20060;-82
2022/09/09 05:24:29;;;;;;;1.80;0.80;;;21.50;81.80;;;;;;5031904;28;20087;-83
2022/09/09 05:26:59;;;;;;;1.10;0.80;;;21.40;81.80;;;;;;5030269;28;20093;-82
2022/09/09 05:29:26;;;;;;;1.93;0.87;;;21.40;81.90;;;;;;5033239;28;20028;-84
2022/09/09 05:31:52;;;;;;;0.98;0.70;;;21.40;81.90;;;;;;5036201;28;20021;-83
2022/09/09 05:34:18;;;;;;;1.95;0.80;;;21.40;82.00;;;;;;5018054;28;20032;-83
2022/09/09 05:36:43;;;;;;;1.45;0.88;;;21.40;81.90;;;;;;5034313;28;20526;-83
2022/09/09 05:39:09;;;;;;;1.65;0.70;;;21.60;82.10;;;;;;5034698;28;20021;-83
2022/09/09 05:41:35;;;;;;;0.80;0.60;;;21.40;82.10;;;;;;5033690;28;20037;-81
2022/09/09 05:44:01;;;;;;;2.50;0.90;;;21.40;82.10;;;;;;5054607;28;20219;-82
2022/09/09 05:46:27;;;;;;;1.23;0.70;;;21.30;82.10;;;;;;5032302;28;20029;-85
2022/09/09 05:48:53;;;;;;;1.92;0.80;;;21.30;82.00;;;;;;5048407;28;20021;-85
2022/09/09 05:51:24;;;;;;;2.55;0.77;;;21.40;82.10;;;;;;5030901;28;20090;-85
2022/09/09 05:53:51;;;;;;;3.15;0.80;;;21.30;81.90;;;;;;5033202;28;20021;-85
2022/09/09 05:56:18;;;;;;;1.38;0.70;;;21.30;81.90;;;;;;5032726;28;20040;-85
2022/09/09 05:58:44;;;;;;;1.13;0.70;;;21.30;81.80;;;;;;5033055;28;20036;-86
2022/09/09 06:01:22;;;;;;;1.48;0.68;;;22.60;82.40;;;;;;5033567;28;20025;-86
2022/09/09 06:03:51;;;;;;;1.55;0.70;;;21.40;81.50;;;;;;5033246;28;20021;-86
2022/09/09 06:06:22;;;;;;;1.65;0.73;;;21.50;81.40;;;;;;5016808;28;20075;-86
2022/09/09 06:08:50;;;;;;;1.95;0.70;;;20.80;80.80;;;;;;5032438;28;20021;-86
2022/09/09 06:11:21;;;;;;;1.33;0.60;;;21.50;80.90;;;;;;5035418;28;20079;-87
2022/09/09 06:13:47;;;;;;;1.50;0.73;;;21.50;81.20;;;;;;5036217;28;20029;-85
2022/09/09 06:16:16;;;;;;;1.45;0.73;;;21.20;81.00;;;;;;5036312;28;20040;-85
2022/09/09 06:18:43;;;;;;;1.88;0.80;;;21.40;81.10;;;;;;5036169;28;20064;-86
2022/09/09 06:21:15;;;;;;;3.28;0.90;;;21.40;81.20;;;;;;5036713;28;20017;-86
2022/09/09 06:23:40;;;;;;;1.35;0.60;;;21.40;81.20;;;;;;5020277;28;20120;-85
2022/09/09 06:26:07;;;;;;;1.92;0.90;;;21.40;81.30;;;;;;5036215;28;20108;-86
2022/09/09 06:28:34;;;;;;;2.25;0.80;;;21.40;81.30;;;;;;5036173;28;20498;-86
2022/09/09 06:31:10;;;;;;;1.90;0.80;;;21.40;81.30;;;;;;5036111;28;20025;-86
2022/09/09 06:33:41;;;;;;;0.88;0.63;;;21.90;81.60;;;;;;5030559;28;20017;-86
2022/09/09 06:36:14;;;;;;;2.53;0.88;;;21.40;81.30;;;;;;5036584;28;20025;-86
2022/09/09 06:38:41;;;;;;;0.80;0.80;;;21.40;81.20;;;;;;5036676;28;20056;-86
2022/09/09 06:41:09;;;;;;;2.08;0.65;;;22.20;81.60;;;;;;5032983;28;20106;-86
2022/09/09 06:43:35;;;;;;;1.02;0.60;;;21.70;81.30;;;;;;5040368;28;20021;-86
2022/09/09 06:46:07;;;;;;;2.03;0.70;;;21.40;81.00;;;;;;5023612;28;20017;-86
2022/09/09 06:48:33;;;;;;;0.80;0.60;;;21.50;80.90;;;;;;5031515;28;20117;-86
2022/09/09 06:51:08;;;;;;;1.23;0.70;;;21.70;80.70;;;;;;5032244;28;20364;-85
2022/09/09 06:53:35;;;;;;;1.45;0.80;;;21.70;80.70;;;;;;5035702;28;20048;-86
2022/09/09 06:56:11;;;;;;;1.67;0.80;;;21.60;80.50;;;;;;5035528;28;20120;-86
2022/09/09 06:58:42;;;;;;;2.13;0.60;;;21.60;80.40;;;;;;5035193;28;20036;-87
2022/09/09 07:01:09;;;;;;;2.05;0.90;;;22.10;80.80;;;;;;5035347;28;20079;-86
2022/09/09 07:03:35;;;;;;;0.82;0.70;;;21.90;81.00;;;;;;5035223;28;20057;-85
2022/09/09 07:06:01;;;;;;;1.05;0.70;;;22.70;81.50;;;;;;5035418;28;20079;-86
2022/09/09 07:08:28;;;;;;;1.17;0.60;;;21.50;80.90;;;;;;5035116;28;20088;-85
2022/09/09 07:10:54;;;;;;;1.55;0.80;;;21.50;81.00;;;;;;5035054;28;20025;-86
2022/09/09 07:13:25;;;;;;;2.25;0.77;;;21.40;81.00;;;;;;5033547;28;20036;-87
2022/09/09 07:15:51;;;;;;;1.35;0.80;;;21.50;81.10;;;;;;5033503;28;20025;-87
2022/09/09 07:18:17;;;;;;;1.35;0.70;;;21.40;81.10;;;;;;5028190;28;20035;-85
2022/09/09 07:20:52;;;;;;;1.42;0.80;;;21.60;81.20;;;;;;5032796;28;20373;-86
2022/09/09 07:23:17;;;;;;;3.40;1.00;;;21.50;81.20;;;;;;5032684;28;20530;-86
2022/09/09 07:25:47;;;;;;;2.65;0.90;;;21.60;81.30;;;;;;5031852;28;20118;-86
2022/09/09 07:28:13;;;;;;;2.08;0.80;;;21.80;81.50;;;;;;5033386;28;20025;-86
2022/09/09 07:30:39;;;;;;;0.93;0.70;;;21.90;81.60;;;;;;5033224;28;20112;-87
2022/09/09 07:33:05;;;;;;;1.88;0.95;;;21.50;81.30;;;;;;5035731;28;20021;-86
2022/09/09 07:35:31;;;;;;;1.75;0.80;;;21.40;81.30;;;;;;5035310;28;20021;-86
2022/09/09 07:37:57;;;;;;;2.35;0.70;;;21.40;81.00;;;;;;5035337;28;20029;-86
2022/09/09 07:40:22;;;;;;;1.00;0.60;;;22.70;81.70;;;;;;5035316;28;20059;-86
2022/09/09 07:42:48;;;;;;;1.27;0.70;;;21.50;80.90;;;;;;5035968;28;20104;-86
2022/09/09 07:45:14;;;;;;;2.60;0.85;;;21.50;80.90;;;;;;5052811;28;20059;-86
2022/09/09 07:47:42;;;;;;;2.13;0.80;;;21.40;80.90;;;;;;5034413;28;20029;-85
2022/09/09 07:50:08;;;;;;;1.30;0.70;;;22.30;81.50;;;;;;5035266;28;20021;-86
2022/09/09 07:52:34;;;;;;;1.25;0.70;;;21.50;81.10;;;;;;5037123;28;20021;-86
2022/09/09 07:55:02;;;;;;;1.27;0.70;;;21.40;81.00;;;;;;5036412;28;20074;-86
2022/09/09 07:57:29;;;;;;;1.13;0.70;;;21.70;81.10;;;;;;5037731;28;20032;-86
2022/09/09 07:59:56;;;;;;;0.90;0.50;;;21.40;81.00;;;;;;5022974;28;20044;-86
2022/09/09 08:02:22;;;;;;;1.13;0.73;;;21.40;81.10;;;;;;5034904;28;20108;-86
2022/09/09 08:04:48;;;;;;;1.58;0.70;;;21.60;81.30;;;;;;5034568;28;20116;-86
2022/09/09 08:07:14;;;;;;;1.45;0.75;;;21.60;81.30;;;;;;5033833;28;20182;-86
2022/09/09 08:09:39;;;;;;;1.30;0.60;;;21.40;81.20;;;;;;5034349;28;20071;-85
2022/09/09 08:12:06;;;;;;;2.05;0.80;;;22.90;82.00;;;;;;5033966;28;20017;-86
2022/09/09 08:14:32;;;;;;;2.05;0.70;;;21.40;81.20;;;;;;5034507;28;20029;-86
2022/09/09 08:16:58;;;;;;;0.82;0.60;;;21.40;81.10;;;;;;5033874;28;20032;-86
2022/09/09 08:19:23;;;;;;;0.60;0.60;;;21.70;81.20;;;;;;5033709;28;20059;-85
2022/09/09 08:21:49;;;;;;;1.35;0.70;;;21.50;81.00;;;;;;5033930;28;20116;-86
2022/09/09 08:24:15;;;;;;;1.05;0.60;;;21.50;80.80;;;;;;5033948;28;20025;-86
2022/09/09 08:26:47;;;;;;;2.33;0.90;;;21.60;80.70;;;;;;5033353;28;20549;-86
2022/09/09 08:29:13;;;;;;;1.90;0.73;;;21.60;80.50;;;;;;5029939;28;20021;-85
2022/09/09 08:31:48;;;;;;;1.65;0.70;;;21.80;80.40;;;;;;5033635;28;20033;-85
2022/09/09 08:34:15;;;;;;;1.00;0.65;;;21.70;80.10;;;;;;5033278;28;20025;-86
2022/09/09 08:36:43;;;;;;;0.85;0.68;;;21.90;80.30;;;;;;5033455;28;20075;-85
2022/09/09 08:39:11;;;;;;;1.52;0.70;;;21.80;80.10;;;;;;5033806;28;20029;-86
2022/09/09 08:42:00;;;;;;;0.68;0.60;;;21.70;79.80;;;;;;5051205;28;20044;-86
2022/09/09 08:44:41;;;;;;;1.13;0.60;;;21.80;79.70;;;;;;5051423;28;20025;-85
2022/09/09 08:47:42;;;;;;;1.85;0.70;;;21.90;79.50;;;;;;5050911;28;20029;-85
2022/09/09 08:50:18;;;;;;;1.45;0.60;;;21.90;79.40;;;;;;5034050;28;20029;-86
2022/09/09 08:53:08;;;;;;;0.70;0.50;;;21.90;79.30;;;;;;5033790;28;20116;-86
2022/09/09 08:55:44;;;;;;;;;;;21.90;79.30;;;;;;5034146;28;20391;-85
2022/09/09 08:58:31;;;;;;;1.08;0.60;;;21.90;79.30;;;;;;5032940;28;19919;-86
2022/09/09 09:01:08;;;;;;;0.73;0.63;;;21.90;79.30;;;;;;5051489;28;20396;-86
2022/09/09 09:03:57;;;;;;;0.85;0.70;;;21.80;79.40;;;;;;5033375;28;20032;-86
2022/09/09 09:06:35;;;;;;;1.77;0.73;;;22.00;79.40;;;;;;5033136;28;20079;-85
2022/09/09 09:09:26;;;;;;;1.00;0.52;;;22.00;79.20;;;;;;5051252;28;20096;-86
2022/09/09 09:11:56;;;;;;;2.42;0.73;;;22.10;78.90;;;;;;5033911;28;20025;-86
2022/09/09 09:14:25;;;;;;;1.52;0.70;;;22.50;79.00;;;;;;5051129;28;20018;-85
2022/09/09 09:17:03;;;;;;;1.60;0.85;;;22.10;78.80;;;;;;5046311;28;20033;-86
2022/09/09 09:19:30;;;;;;;3.00;1.02;;;22.00;78.80;;;;;;5033084;28;20041;-85
2022/09/09 09:22:15;;;;;;;1.23;0.75;;;22.00;78.90;;;;;;5051918;28;20032;-85
2022/09/09 09:24:54;;;;;;;1.92;0.80;;;22.00;79.10;;;;;;5033846;28;20045;-86
2022/09/09 09:27:46;;;;;;;0.90;0.70;;;22.00;79.20;;;;;;5033321;28;20025;-85
2022/09/09 09:30:19;;;;;;;1.67;0.90;;;21.90;79.20;;;;;;5033188;28;20487;-86
2022/09/09 09:33:18;;;;;;;1.38;0.75;;;22.00;79.30;;;;;;5033067;28;20031;-85
2022/09/09 09:35:44;;;;;;;1.00;0.70;;;21.90;79.30;;;;;;5033741;28;20120;-85
2022/09/09 09:38:23;;;;;;;2.38;0.80;;;21.90;79.50;;;;;;5033333;28;20053;-86
2022/09/09 09:40:57;;;;;;;2.35;0.90;;;21.90;79.60;;;;;;5033191;28;20095;-86
2022/09/09 09:43:34;;;;;;;1.70;0.70;;;21.90;79.70;;;;;;5033384;28;20029;-86
2022/09/09 09:46:00;;;;;;;1.63;0.73;;;21.90;79.40;;;;;;5034796;28;20108;-86
2022/09/09 09:48:27;;;;;;;1.80;0.70;;;22.00;79.50;;;;;;5036963;28;20052;-85
2022/09/09 09:51:02;;;;;;;1.60;1.00;;;22.90;79.80;;;;;;5037183;28;20032;-86
2022/09/09 09:53:33;;;;;;;3.03;1.00;;;22.10;79.00;;;;;;5037643;28;20025;-86
2022/09/09 09:56:02;;;;;;;2.47;0.77;;;22.20;78.80;;;;;;5037300;28;20115;-86
2022/09/09 09:58:33;;;;;;;1.23;0.80;;;22.20;78.60;;;;;;5055559;28;20025;-85
2022/09/09 10:01:00;;;;;;;1.83;0.88;;;22.30;78.40;;;;;;5038091;28;20112;-85
2022/09/09 10:03:37;;;;;;;1.45;0.88;;;22.30;78.10;;;;;;5037827;28;20123;-85
2022/09/09 10:06:03;;;;;;;1.55;0.75;;;22.30;77.90;;;;;;5037975;28;20036;-85
2022/09/09 10:08:33;;;;;;;1.58;0.85;;;22.40;77.80;;;;;;5037784;28;20369;-86
2022/09/09 10:11:39;;;;;;;0.95;0.70;;;24.00;78.70;;;;;;5039068;28;20029;-86
2022/09/09 10:14:18;;;;;;;1.70;0.70;;;22.40;78.00;;;;;;5035248;28;20029;-85
2022/09/09 10:16:48;;;;;;;1.53;0.63;;;22.40;78.00;;;;;;5040319;28;20487;-84
2022/09/09 10:19:17;;;;;;;1.27;0.60;;;22.40;78.10;;;;;;5038151;28;20037;-85
2022/09/09 10:22:09;;;;;;;2.08;0.90;;;22.60;78.30;;;;;;5050041;28;20021;-85
2022/09/09 10:24:50;;;;;;;1.73;0.77;;;22.40;78.10;;;;;;5038824;28;20033;-86
2022/09/09 10:27:37;;;;;;;1.70;0.70;;;22.40;78.10;;;;;;5052006;28;20071;-85
2022/09/09 10:30:12;;;;;;;0.70;0.60;;;22.40;78.10;;;;;;5051048;28;20021;-86
2022/09/09 10:32:44;;;;;;;2.25;0.70;;;22.40;78.00;;;;;;5052757;28;20028;-86
2022/09/09 10:35:30;;;;;;;2.38;0.82;;;22.50;78.00;;;;;;5053020;28;20023;-85
2022/09/09 10:38:10;;;;;;;0.98;0.77;;;22.50;77.90;;;;;;5052401;28;20055;-85
2022/09/09 10:40:55;;;;;;;1.52;0.80;;;22.50;77.80;;;;;;5053688;28;20112;-86
2022/09/09 10:43:23;;;;;;;0.60;0.60;;;22.50;77.80;;;;;;5052281;28;20522;-85
2022/09/09 10:46:03;;;;;;;2.95;0.80;;;22.50;77.60;;;;;;5052652;28;20053;-85
2022/09/09 10:49:04;;;;;;;1.53;0.70;;;22.60;77.50;;;;;;5051624;28;20033;-85
2022/09/09 10:52:07;;;;;;;2.55;0.80;;;22.60;77.40;;;;;;5052172;28;20272;-85
2022/09/09 10:54:58;;;;;;;2.88;0.80;;;22.60;77.30;;;;;;5051838;28;20395;-85
2022/09/09 10:57:34;;;;;;;1.55;0.77;;;22.60;77.30;;;;;;5051712;28;20124;-85
2022/09/09 11:00:05;;;;;;;1.83;0.68;;;22.50;77.40;;;;;;5052504;28;20522;-85
2022/09/09 11:02:32;;;;;;;1.70;0.80;;;22.50;77.60;;;;;;5053271;28;20496;-85
2022/09/09 11:05:42;;;;;;;1.50;0.88;;;22.40;77.70;;;;;;5035736;28;20124;-85
2022/09/09 11:08:17;;;;;;;1.92;0.73;;;22.40;77.80;;;;;;5047342;28;20029;-86
2022/09/09 11:11:11;;;;;;;1.55;0.68;;;22.40;77.80;;;;;;5052277;28;20017;-85
2022/09/09 11:13:58;;;;;;;2.50;0.70;;;22.40;77.90;;;;;;5051696;28;20100;-85
2022/09/09 11:16:45;;;;;;;2.13;0.93;;;22.50;77.90;;;;;;5051664;28;20057;-86
2022/09/09 11:19:15;;;;;;;2.25;0.80;;;22.50;78.00;;;;;;5051298;28;20090;-84
2022/09/09 11:21:47;;;;;;;2.17;0.80;;;22.40;77.90;;;;;;5051625;28;20082;-86
2022/09/09 11:24:29;;;;;;;1.63;0.70;;;22.40;77.90;;;;;;5051075;28;20032;-85
2022/09/09 11:27:06;;;;;;;1.30;0.60;;;22.50;77.90;;;;;;5051151;28;20033;-85
2022/09/09 11:30:17;;;;;;;1.75;0.70;;;22.50;77.80;;;;;;5051306;28;20025;-85
2022/09/09 11:33:02;;;;;;;2.30;1.00;;;22.50;77.60;;;;;;5051822;28;20032;-86
2022/09/09 11:35:54;;;;;;;1.95;0.80;;;22.60;77.60;;;;;;5052426;28;20049;-85
2022/09/09 11:38:31;;;;;;;1.30;0.73;;;22.60;77.30;;;;;;5052527;28;20025;-85
2022/09/09 11:41:02;;;;;;;1.92;0.73;;;22.60;77.20;;;;;;5051566;28;20075;-85
2022/09/09 11:43:32;;;;;;;1.25;0.65;;;22.70;77.10;;;;;;5051633;28;20044;-86
2022/09/09 11:46:02;;;;;;;2.20;0.70;;;22.70;77.20;;;;;;5051183;28;20021;-85
2022/09/09 11:49:01;;;;;;;2.20;0.70;;;22.70;77.20;;;;;;5051319;28;20032;-85
2022/09/09 11:51:30;;;;;;;1.83;0.80;;;22.60;77.30;;;;;;5034031;28;20032;-85
2022/09/09 11:53:55;;;;;;;1.13;0.80;;;22.70;77.40;;;;;;5051099;28;20025;-85
2022/09/09 11:56:31;;;;;;;1.42;0.80;;;22.60;77.40;;;;;;5050525;28;20495;-85
2022/09/09 11:59:05;;;;;;;1.90;0.90;;;22.50;77.40;;;;;;5051071;28;20063;-85
2022/09/09 12:01:35;;;;;;;2.17;0.90;;;22.50;77.90;;;;;;5051095;28;20056;-84
2022/09/09 12:04:19;;;;;;;2.30;0.80;;;22.50;77.90;;;;;;5051335;28;20033;-85
2022/09/09 12:07:23;;;;;;;1.67;0.60;;;22.40;77.70;;;;;;5050844;28;20029;-86
2022/09/09 12:10:06;;;;;;;1.42;0.70;;;22.40;78.00;;;;;;5051706;28;20051;-85
2022/09/09 12:12:37;;;;;;;1.60;0.80;;;22.40;78.20;;;;;;5051511;28;20118;-86
2022/09/09 12:15:09;;;;;;;1.73;0.70;;;22.30;78.30;;;;;;5052122;28;20017;-85
2022/09/09 12:17:54;;;;;;;1.58;0.70;;;22.40;78.40;;;;;;5051372;28;20055;-85
2022/09/09 12:20:20;;;;;;;2.47;0.70;;;22.30;78.40;;;;;;5051749;28;20114;-86
2022/09/09 12:22:59;;;;;;;2.72;0.90;;;22.30;78.40;;;;;;5051732;28;20060;-86
2022/09/09 12:25:48;;;;;;;1.92;0.80;;;22.40;78.40;;;;;;5053011;28;20118;-86
2022/09/09 12:28:22;;;;;;;2.50;0.80;;;22.30;78.40;;;;;;5052703;28;20064;-86
2022/09/09 12:31:01;;;;;;;1.70;0.80;;;22.30;78.40;;;;;;5052493;28;20021;-85
2022/09/09 12:33:42;;;;;;;1.88;0.80;;;22.20;78.50;;;;;;5055309;28;20017;-85
2022/09/09 12:36:15;;;;;;;1.27;0.77;;;22.20;78.70;;;;;;5055332;28;20033;-89
2022/09/09 12:38:43;;;;;;;1.25;0.70;;;21.20;78.20;;;;;;5046060;28;20500;-89
2022/09/09 12:41:24;;;;;;;1.63;0.68;;;22.20;78.90;;;;;;5050976;28;20029;-90
2022/09/09 12:43:51;;;;;;;1.60;0.80;;;22.70;79.30;;;;;;5045206;28;20039;-88
2022/09/09 12:46:33;;;;;;;2.53;0.90;;;23.00;79.40;;;;;;5030995;28;20022;-88
2022/09/09 12:48:59;;;;;;;1.95;0.80;;;22.40;79.10;;;;;;5012455;28;20499;-88
2022/09/09 12:51:30;;;;;;;2.15;0.80;;;22.10;79.00;;;;;;5019941;28;20032;-87
2022/09/09 12:53:56;;;;;;;2.60;1.00;;;22.10;79.00;;;;;;5024804;28;20021;-86
2022/09/09 12:56:28;;;;;;;2.08;0.70;;;22.00;78.90;;;;;;5026239;28;20025;-86
2022/09/09 12:58:56;;;;;;;1.30;0.70;;;22.20;79.00;;;;;;5026364;28;20521;-86
2022/09/09 13:01:32;;;;;;;2.30;1.05;;;22.10;78.90;;;;;;5031332;28;20104;-86
2022/09/09 13:03:58;;;;;;;1.10;0.60;;;22.20;79.00;;;;;;5031655;28;20021;-86
2022/09/09 13:06:27;;;;;;;2.53;0.80;;;22.20;78.90;;;;;;5025354;28;20036;-85
2022/09/09 13:08:56;;;;;;;2.22;0.68;;;22.20;78.90;;;;;;5032116;28;20025;-86
2022/09/09 13:11:46;;;;;;;1.77;0.70;;;22.20;78.80;;;;;;5028304;28;20072;-85
2022/09/09 13:14:19;;;;;;;2.45;0.85;;;23.80;79.80;;;;;;5025303;28;20037;-86
2022/09/09 13:16:56;;;;;;;2.92;0.93;;;22.50;79.00;;;;;;5023246;28;20120;-86